Time;durP1;ratioP1;P1;durP2;ratioP2;P2;SDS_P1;SDS_P2;PMS_P1;PMS_P2;Temp;Humidity;BMP_temperature;BMP_pressure;BME280_temperature;BME280_humidity;BME280_pressure;Samples;Min_cycle;Max_cycle;Signal;HPM_P1;HPM_P2
2024/03/29 00:00:55;;;;;;;3.90;1.77;;;8.10;99.90;;;;;;5039034;28;20438;-70
2024/03/29 00:03:21;;;;;;;3.73;1.37;;;8.10;99.90;;;;;;5043415;28;20484;-69
2024/03/29 00:05:47;;;;;;;1.70;1.10;;;8.00;99.90;;;;;;5056669;28;20855;-69
2024/03/29 00:08:12;;;;;;;2.43;1.80;;;8.00;99.90;;;;;;5062334;28;20687;-71
2024/03/29 00:10:38;;;;;;;2.53;1.73;;;7.90;99.90;;;;;;5044820;28;20219;-71
2024/03/29 00:13:04;;;;;;;3.03;1.60;;;7.90;99.90;;;;;;5057477;28;20757;-70
2024/03/29 00:15:32;;;;;;;1.93;1.53;;;7.90;99.90;;;;;;5059635;28;20222;-71
2024/03/29 00:17:57;;;;;;;5.40;2.33;;;7.90;99.90;;;;;;5040795;28;20447;-69
2024/03/29 00:20:23;;;;;;;2.20;1.93;;;7.90;99.90;;;;;;5042875;28;20929;-69
2024/03/29 00:22:49;;;;;;;1.70;1.43;;;7.80;99.90;;;;;;5056064;28;20230;-70
2024/03/29 00:25:15;;;;;;;2.47;1.90;;;7.80;99.90;;;;;;5060237;28;20215;-71
2024/03/29 00:27:41;;;;;;;2.00;1.73;;;7.90;99.90;;;;;;5060581;28;20276;-70
2024/03/29 00:30:07;;;;;;;2.20;2.00;;;7.80;99.90;;;;;;5039508;28;20792;-69
2024/03/29 00:32:32;;;;;;;3.50;2.60;;;7.70;99.90;;;;;;5044176;28;20300;-70
2024/03/29 00:34:58;;;;;;;7.27;6.67;;;7.80;99.90;;;;;;5055665;28;20985;-70
2024/03/29 00:37:24;;;;;;;7.10;6.30;;;7.80;99.90;;;;;;5058712;28;20226;-71
2024/03/29 00:39:50;;;;;;;5.60;5.10;;;7.70;99.90;;;;;;5057078;28;20215;-70
2024/03/29 00:42:16;;;;;;;5.60;4.87;;;7.60;99.90;;;;;;5060645;28;20481;-70
2024/03/29 00:44:42;;;;;;;5.37;4.87;;;7.60;99.90;;;;;;5058431;28;20694;-71
2024/03/29 00:47:09;;;;;;;5.20;4.80;;;7.70;99.90;;;;;;5056760;28;20469;-70
2024/03/29 00:49:35;;;;;;;4.70;4.20;;;7.80;99.90;;;;;;5059962;28;20473;-70
2024/03/29 00:52:02;;;;;;;4.67;4.30;;;7.80;99.90;;;;;;5057915;28;20474;-71
2024/03/29 00:54:27;;;;;;;3.60;3.30;;;7.90;99.90;;;;;;5061267;28;20212;-70
2024/03/29 00:56:53;;;;;;;3.10;2.90;;;7.80;99.90;;;;;;5059502;28;20494;-71
2024/03/29 00:59:20;;;;;;;5.40;3.53;;;7.80;99.90;;;;;;5062888;28;20309;-70
2024/03/29 01:01:45;;;;;;;3.00;2.67;;;7.80;99.90;;;;;;5055218;28;20249;-71
2024/03/29 01:04:11;;;;;;;2.27;2.17;;;7.80;99.90;;;;;;5060463;28;20477;-70
2024/03/29 01:06:38;;;;;;;2.60;2.37;;;7.80;99.90;;;;;;5061498;28;20260;-70
2024/03/29 01:09:04;;;;;;;2.40;2.20;;;7.80;99.90;;;;;;5056070;28;20564;-70
2024/03/29 01:11:30;;;;;;;2.60;2.40;;;7.80;99.90;;;;;;5041973;28;20970;-70
2024/03/29 01:13:56;;;;;;;2.40;2.20;;;7.90;99.90;;;;;;5055869;28;20469;-71
2024/03/29 01:16:22;;;;;;;2.23;2.03;;;7.90;99.90;;;;;;5039739;28;20469;-70
2024/03/29 01:18:48;;;;;;;2.73;2.07;;;7.80;99.90;;;;;;5056618;28;21102;-71
2024/03/29 01:21:14;;;;;;;5.30;2.67;;;7.80;99.90;;;;;;5058507;28;20226;-69
2024/03/29 01:23:40;;;;;;;2.80;2.33;;;7.80;99.90;;;;;;5058384;28;20220;-70
2024/03/29 01:26:07;;;;;;;3.30;2.20;;;7.70;99.90;;;;;;5055761;28;20230;-68
2024/03/29 01:28:33;;;;;;;2.57;1.80;;;7.70;99.90;;;;;;5057875;28;20898;-71
2024/03/29 01:31:01;;;;;;;2.13;2.03;;;7.70;99.90;;;;;;5056240;28;20457;-69
2024/03/29 01:33:26;;;;;;;2.13;1.90;;;7.70;99.90;;;;;;5058071;28;20461;-71
2024/03/29 01:35:53;;;;;;;3.63;2.37;;;7.70;99.90;;;;;;5040725;28;20495;-69
2024/03/29 01:38:20;;;;;;;2.70;1.90;;;7.60;99.90;;;;;;5059296;28;20226;-69
2024/03/29 01:40:45;;;;;;;2.27;1.90;;;7.50;99.90;;;;;;5054775;28;20451;-71
2024/03/29 01:43:11;;;;;;;6.73;1.60;;;7.50;99.90;;;;;;5058314;28;20466;-71
2024/03/29 01:45:39;;;;;;;1.50;1.40;;;7.40;99.90;;;;;;5057569;28;20230;-71
2024/03/29 01:48:06;;;;;;;1.50;1.40;;;7.40;99.90;;;;;;5053650;28;20229;-68
2024/03/29 01:50:32;;;;;;;2.17;1.53;;;7.50;99.90;;;;;;5056319;28;20457;-69
2024/03/29 01:52:59;;;;;;;3.67;2.27;;;7.50;99.90;;;;;;5055146;28;20460;-70
2024/03/29 01:55:25;;;;;;;1.77;1.30;;;7.50;99.90;;;;;;5057401;28;20531;-69
2024/03/29 01:57:55;;;;;;;1.90;1.30;;;7.50;99.90;;;;;;5053861;28;20494;-69
2024/03/29 02:00:21;;;;;;;3.87;1.70;;;7.40;99.90;;;;;;5059085;28;20466;-70
2024/03/29 02:02:47;;;;;;;3.10;1.70;;;7.40;99.90;;;;;;5054476;28;20492;-69
2024/03/29 02:05:13;;;;;;;3.13;1.77;;;7.40;99.90;;;;;;5044219;28;20223;-71
2024/03/29 02:07:39;;;;;;;2.13;1.40;;;7.50;99.90;;;;;;5040394;28;20553;-70
2024/03/29 02:10:08;;;;;;;2.43;1.60;;;7.50;99.90;;;;;;5058313;28;20450;-70
2024/03/29 02:12:34;;;;;;;3.13;1.67;;;7.50;99.90;;;;;;5043732;28;20225;-70
2024/03/29 02:15:02;;;;;;;3.60;1.90;;;7.50;99.90;;;;;;5053527;28;21015;-70
2024/03/29 02:17:28;;;;;;;2.20;1.43;;;7.40;99.90;;;;;;5056073;28;20469;-70
2024/03/29 02:19:53;;;;;;;1.50;1.23;;;7.40;99.90;;;;;;5057547;28;20894;-70
2024/03/29 02:22:20;;;;;;;1.27;1.23;;;7.40;99.90;;;;;;5059501;28;20221;-69
2024/03/29 02:24:46;;;;;;;2.03;1.67;;;7.50;99.90;;;;;;5037487;28;20223;-71
2024/03/29 02:27:12;;;;;;;4.30;1.30;;;7.50;99.90;;;;;;5061512;28;20466;-69
2024/03/29 02:29:37;;;;;;;2.50;1.70;;;7.60;99.90;;;;;;5056707;28;20457;-72
2024/03/29 02:32:04;;;;;;;11.20;1.97;;;7.40;99.90;;;;;;5054777;28;20239;-68
2024/03/29 02:34:29;;;;;;;4.63;1.53;;;7.50;99.90;;;;;;5059563;28;20226;-70
2024/03/29 02:36:56;;;;;;;1.33;1.23;;;7.50;99.90;;;;;;5057557;28;20523;-70
2024/03/29 02:39:22;;;;;;;3.93;2.03;;;7.60;99.90;;;;;;5058089;28;20380;-70
2024/03/29 02:41:48;;;;;;;3.30;1.70;;;7.70;99.90;;;;;;5055406;28;20895;-71
2024/03/29 02:44:15;;;;;;;1.57;1.47;;;7.70;99.90;;;;;;5059622;28;20313;-70
2024/03/29 02:46:41;;;;;;;3.37;2.37;;;7.70;99.90;;;;;;5061419;28;20272;-71
2024/03/29 02:49:07;;;;;;;2.40;1.80;;;7.70;99.90;;;;;;5057738;28;20488;-71
2024/03/29 02:51:33;;;;;;;2.07;1.80;;;7.70;99.90;;;;;;5060457;28;20481;-71
2024/03/29 02:53:58;;;;;;;3.10;1.90;;;7.70;99.90;;;;;;5058144;28;20222;-70
2024/03/29 02:56:24;;;;;;;2.50;1.80;;;7.60;99.90;;;;;;5065235;28;20280;-69
2024/03/29 02:58:50;;;;;;;2.20;2.00;;;7.60;99.90;;;;;;5067453;28;20230;-70
2024/03/29 03:01:15;;;;;;;2.53;1.80;;;7.60;99.90;;;;;;5067304;28;20215;-70
2024/03/29 03:03:41;;;;;;;2.70;2.00;;;7.50;99.90;;;;;;5069873;28;20210;-71
2024/03/29 03:06:07;;;;;;;1.73;1.60;;;7.50;99.90;;;;;;5053812;28;20230;-67
2024/03/29 03:11:17;;;;;;;1.60;1.40;;;7.60;99.90;;;;;;5064853;28;20277;-70
2024/03/29 03:13:42;;;;;;;2.10;1.53;;;7.50;99.90;;;;;;5057067;28;20481;-71
2024/03/29 03:16:08;;;;;;;5.80;2.30;;;7.60;99.90;;;;;;5049810;28;20280;-70
2024/03/29 03:18:34;;;;;;;3.30;1.80;;;7.60;99.90;;;;;;5051173;28;20230;-70
2024/03/29 03:20:59;;;;;;;3.03;1.93;;;7.60;99.90;;;;;;5058317;28;20234;-70
2024/03/29 03:23:25;;;;;;;3.30;1.60;;;7.60;99.90;;;;;;5069131;28;20220;-70
2024/03/29 03:25:55;;;;;;;2.60;1.63;;;7.70;99.90;;;;;;5055782;28;20208;-71
2024/03/29 03:28:21;;;;;;;3.40;1.70;;;7.80;99.90;;;;;;5058305;28;20486;-70
2024/03/29 03:30:48;;;;;;;1.73;1.60;;;7.70;99.90;;;;;;5057166;28;20465;-70
2024/03/29 03:33:14;;;;;;;2.30;1.77;;;7.80;99.90;;;;;;5035103;28;20453;-70
2024/03/29 03:35:39;;;;;;;1.73;1.03;;;7.80;99.90;;;;;;5060462;28;20462;-71
2024/03/29 03:38:05;;;;;;;3.73;2.20;;;7.80;99.90;;;;;;5059541;28;20228;-71
2024/03/29 03:40:30;;;;;;;3.50;1.60;;;7.80;99.90;;;;;;5061241;28;20223;-70
2024/03/29 03:42:56;;;;;;;2.93;1.33;;;7.80;99.90;;;;;;5057466;28;20606;-71
2024/03/29 03:45:22;;;;;;;1.53;1.30;;;7.80;99.90;;;;;;5061795;28;20711;-69
2024/03/29 03:47:48;;;;;;;1.27;0.93;;;7.80;99.90;;;;;;5057489;28;20211;-69
2024/03/29 03:50:14;;;;;;;2.33;1.20;;;7.80;99.90;;;;;;5059850;28;20246;-70
2024/03/29 03:52:40;;;;;;;2.53;1.17;;;7.80;99.90;;;;;;5060463;28;20535;-70
2024/03/29 03:55:06;;;;;;;3.60;1.70;;;7.80;99.90;;;;;;5055355;28;20219;-68
2024/03/29 03:57:33;;;;;;;2.97;1.60;;;7.80;99.90;;;;;;5044914;28;20227;-71
2024/03/29 03:59:59;;;;;;;3.07;1.83;;;7.80;99.90;;;;;;5058044;28;20212;-70
2024/03/29 04:02:25;;;;;;;1.37;1.20;;;7.80;99.90;;;;;;5062568;28;20468;-71
2024/03/29 04:04:50;;;;;;;1.90;1.40;;;7.80;99.90;;;;;;5056630;28;20227;-70
2024/03/29 04:07:16;;;;;;;1.57;1.47;;;7.80;99.90;;;;;;5061839;28;20216;-70
2024/03/29 04:09:42;;;;;;;1.60;1.13;;;7.80;99.90;;;;;;5061356;28;20294;-70
2024/03/29 04:12:07;;;;;;;4.57;1.17;;;7.90;99.90;;;;;;5060732;28;20238;-70
2024/03/29 04:14:33;;;;;;;1.70;1.17;;;7.90;99.90;;;;;;5061285;28;20227;-69
2024/03/29 04:16:59;;;;;;;2.53;1.63;;;7.80;99.90;;;;;;5053675;28;20318;-70
2024/03/29 04:19:25;;;;;;;1.60;1.10;;;7.90;99.90;;;;;;5043672;28;20219;-71
2024/03/29 04:21:52;;;;;;;1.17;1.00;;;7.90;99.90;;;;;;5038122;28;20264;-70
2024/03/29 04:24:18;;;;;;;1.57;0.83;;;7.80;99.90;;;;;;5062396;28;20258;-71
2024/03/29 04:26:44;;;;;;;2.30;1.93;;;7.80;99.90;;;;;;5059985;28;20473;-70
2024/03/29 04:29:11;;;;;;;4.33;2.57;;;7.80;99.90;;;;;;5041472;28;20971;-70
2024/03/29 04:31:36;;;;;;;3.13;2.40;;;7.80;99.90;;;;;;5058338;28;20504;-70
2024/03/29 04:34:02;;;;;;;2.40;1.93;;;7.80;99.90;;;;;;5040247;28;20488;-72
2024/03/29 04:36:27;;;;;;;1.70;1.30;;;7.80;99.90;;;;;;5063226;28;20260;-72
2024/03/29 04:38:55;;;;;;;1.17;1.10;;;7.80;99.90;;;;;;5057226;28;20207;-71
2024/03/29 04:41:20;;;;;;;0.87;0.87;;;7.80;99.90;;;;;;5043213;28;20211;-70
2024/03/29 04:43:46;;;;;;;1.90;1.30;;;7.90;99.90;;;;;;5057399;28;20552;-71
2024/03/29 04:46:13;;;;;;;1.77;1.13;;;7.90;99.90;;;;;;5060216;28;20223;-71
2024/03/29 04:48:41;;;;;;;1.97;1.30;;;7.90;99.90;;;;;;5059029;28;20304;-71
2024/03/29 04:51:07;;;;;;;1.60;1.50;;;7.90;99.90;;;;;;5057714;28;20480;-71
2024/03/29 04:53:35;;;;;;;1.83;1.27;;;7.90;99.90;;;;;;5043445;28;20458;-70
2024/03/29 04:56:01;;;;;;;5.57;1.53;;;7.90;99.90;;;;;;5040686;28;20223;-71
2024/03/29 04:58:26;;;;;;;4.20;1.30;;;7.90;99.90;;;;;;5061658;28;20468;-71
2024/03/29 05:00:53;;;;;;;3.27;1.10;;;7.90;99.90;;;;;;5056970;28;20709;-70
2024/03/29 05:03:20;;;;;;;1.20;1.10;;;7.90;99.90;;;;;;5060253;28;20211;-67
2024/03/29 05:05:46;;;;;;;1.63;1.30;;;8.00;99.90;;;;;;5075573;28;20861;-71
2024/03/29 05:08:12;;;;;;;2.40;1.47;;;8.00;99.90;;;;;;5044951;28;20463;-69
2024/03/29 05:10:39;;;;;;;2.50;1.07;;;8.00;99.90;;;;;;5055684;28;20541;-71
2024/03/29 05:13:05;;;;;;;4.17;1.60;;;8.00;99.90;;;;;;5051940;28;20454;-70
2024/03/29 05:15:31;;;;;;;2.07;1.60;;;8.00;99.90;;;;;;5058360;28;20481;-69
2024/03/29 05:17:57;;;;;;;1.87;1.60;;;8.10;99.90;;;;;;5037068;28;20708;-71
2024/03/29 05:20:23;;;;;;;2.00;1.50;;;8.00;99.90;;;;;;5058829;28;20461;-68
2024/03/29 05:22:48;;;;;;;2.10;1.20;;;8.00;99.90;;;;;;5040349;28;20230;-71
2024/03/29 05:25:14;;;;;;;1.93;1.60;;;8.00;99.90;;;;;;5061181;28;20302;-71
2024/03/29 05:27:40;;;;;;;4.03;1.33;;;8.10;99.90;;;;;;5057392;28;20813;-70
2024/03/29 05:30:06;;;;;;;2.33;1.60;;;8.10;99.90;;;;;;5056319;28;20354;-71
2024/03/29 05:32:32;;;;;;;1.77;1.67;;;8.10;99.90;;;;;;5058310;28;20215;-71
2024/03/29 05:34:57;;;;;;;1.30;1.20;;;8.10;99.90;;;;;;5053320;28;21007;-70
2024/03/29 05:37:25;;;;;;;2.50;1.67;;;8.10;99.90;;;;;;5059083;28;20333;-70
2024/03/29 05:39:58;;;;;;;2.27;1.33;;;8.10;99.90;;;;;;5052816;28;20226;-71
2024/03/29 05:42:27;;;;;;;2.20;1.20;;;8.10;99.90;;;;;;5043832;28;20450;-71
2024/03/29 05:44:53;;;;;;;2.73;1.67;;;8.10;99.90;;;;;;5056309;28;20457;-71
2024/03/29 05:47:20;;;;;;;1.40;1.30;;;8.10;99.90;;;;;;5060026;28;20465;-71
2024/03/29 05:49:45;;;;;;;1.57;1.47;;;8.10;99.90;;;;;;5043245;28;20215;-71
2024/03/29 05:52:14;;;;;;;1.30;1.20;;;8.20;99.90;;;;;;5058871;28;20473;-71
2024/03/29 05:54:43;;;;;;;3.40;1.33;;;8.20;99.90;;;;;;5058841;28;20300;-71
2024/03/29 05:57:09;;;;;;;1.53;1.33;;;8.20;99.90;;;;;;5054486;28;20662;-69
2024/03/29 05:59:35;;;;;;;2.07;1.20;;;8.20;99.90;;;;;;5059305;28;20556;-71
2024/03/29 06:02:02;;;;;;;1.10;1.07;;;8.20;99.90;;;;;;5055086;28;20472;-71
2024/03/29 06:04:33;;;;;;;1.77;1.00;;;8.20;99.90;;;;;;5059110;28;20465;-71
2024/03/29 06:07:02;;;;;;;2.20;1.43;;;8.30;99.90;;;;;;5051771;28;20536;-70
2024/03/29 06:09:28;;;;;;;1.70;1.60;;;8.30;99.90;;;;;;5059098;28;20505;-70
2024/03/29 06:11:55;;;;;;;3.10;2.10;;;8.30;99.90;;;;;;5054416;28;20478;-71
2024/03/29 06:17:24;;;;;;;1.50;1.40;;;8.30;99.90;;;;;;5051333;28;20463;-69
2024/03/29 06:19:58;;;;;;;1.43;1.33;;;8.40;99.90;;;;;;5070954;28;20476;-71
2024/03/29 06:22:24;;;;;;;1.53;1.10;;;8.40;99.90;;;;;;5059998;28;20465;-68
2024/03/29 06:24:53;;;;;;;1.77;1.27;;;8.40;99.90;;;;;;5054440;28;20986;-71
2024/03/29 06:27:22;;;;;;;1.07;0.97;;;8.50;99.90;;;;;;5060980;28;20492;-71
2024/03/29 06:29:49;;;;;;;1.50;1.20;;;8.50;99.90;;;;;;5049272;28;20457;-71
2024/03/29 06:32:16;;;;;;;1.60;1.03;;;8.50;99.90;;;;;;5058230;28;20978;-71
2024/03/29 06:34:41;;;;;;;2.33;1.03;;;8.50;99.90;;;;;;5058074;28;20457;-72
2024/03/29 06:37:07;;;;;;;1.43;1.03;;;8.50;99.90;;;;;;5040112;28;20472;-71
2024/03/29 06:39:33;;;;;;;1.47;1.03;;;8.60;99.90;;;;;;5059718;28;20294;-71
2024/03/29 06:41:59;;;;;;;0.77;0.70;;;8.60;99.90;;;;;;5055706;28;20221;-72
2024/03/29 06:44:24;;;;;;;1.10;1.00;;;8.60;99.90;;;;;;5061127;28;20474;-71
2024/03/29 06:46:51;;;;;;;1.70;0.70;;;8.70;99.90;;;;;;5052818;28;20219;-72
2024/03/29 06:49:17;;;;;;;1.00;0.83;;;8.70;99.90;;;;;;5060330;28;20226;-71
2024/03/29 06:51:43;;;;;;;0.87;0.83;;;8.80;99.90;;;;;;5056249;28;20462;-71
2024/03/29 06:54:09;;;;;;;1.80;1.10;;;8.80;99.90;;;;;;5056002;28;20552;-70
2024/03/29 06:56:34;;;;;;;1.90;1.70;;;8.80;99.90;;;;;;5061254;28;20242;-71
2024/03/29 06:59:00;;;;;;;2.23;1.27;;;8.80;99.90;;;;;;5055692;28;20488;-72
2024/03/29 07:01:26;;;;;;;14.43;1.80;;;8.90;99.90;;;;;;5058708;28;20211;-71
2024/03/29 07:03:51;;;;;;;2.10;1.10;;;8.90;99.90;;;;;;5054826;28;20251;-71
2024/03/29 07:06:17;;;;;;;1.33;1.23;;;8.90;99.90;;;;;;5059961;28;20222;-71
2024/03/29 07:08:42;;;;;;;0.70;0.70;;;8.90;99.90;;;;;;5060062;28;20214;-72
2024/03/29 07:11:09;;;;;;;1.87;1.50;;;8.90;99.90;;;;;;5060798;28;20215;-72
2024/03/29 07:13:35;;;;;;;1.33;1.10;;;8.90;99.90;;;;;;5066679;28;20227;-72
2024/03/29 07:16:01;;;;;;;1.40;1.20;;;9.00;99.90;;;;;;5063108;28;20466;-71
2024/03/29 07:18:27;;;;;;;1.23;1.07;;;9.00;99.90;;;;;;5064761;28;20238;-71
2024/03/29 07:20:53;;;;;;;1.33;1.23;;;9.00;99.90;;;;;;5062420;28;20465;-71
2024/03/29 07:23:20;;;;;;;1.07;0.97;;;9.00;99.90;;;;;;5050190;28;20430;-71
2024/03/29 07:25:57;;;;;;;1.10;0.97;;;9.00;99.90;;;;;;5062729;28;20298;-70
2024/03/29 07:28:23;;;;;;;1.30;1.20;;;9.00;99.90;;;;;;5064387;28;20452;-71
2024/03/29 07:30:50;;;;;;;0.83;0.70;;;9.00;99.90;;;;;;5041100;28;20450;-70
2024/03/29 07:33:16;;;;;;;1.60;1.17;;;9.00;99.90;;;;;;5060336;28;20604;-71
2024/03/29 07:35:42;;;;;;;1.03;0.90;;;9.10;99.90;;;;;;5062168;28;20584;-71
2024/03/29 07:38:08;;;;;;;2.50;0.77;;;9.10;99.90;;;;;;5036806;28;20454;-71
2024/03/29 07:40:34;;;;;;;1.50;0.97;;;9.10;99.90;;;;;;5061978;28;20474;-71
2024/03/29 07:43:00;;;;;;;2.87;1.30;;;9.10;99.90;;;;;;5055989;28;20207;-70
2024/03/29 07:45:27;;;;;;;5.90;1.03;;;9.10;99.90;;;;;;5044592;28;20449;-70
2024/03/29 07:47:53;;;;;;;1.10;1.00;;;9.10;99.90;;;;;;5056992;28;20840;-71
2024/03/29 07:50:19;;;;;;;1.47;1.37;;;9.10;99.90;;;;;;5063987;28;20461;-70
2024/03/29 07:52:45;;;;;;;2.03;0.97;;;9.10;99.90;;;;;;5060534;28;20449;-70
2024/03/29 07:55:11;;;;;;;2.40;1.37;;;9.10;99.90;;;;;;5060654;28;20227;-70
2024/03/29 07:57:37;;;;;;;1.10;1.00;;;9.10;99.90;;;;;;5061125;28;20489;-70
2024/03/29 08:00:04;;;;;;;1.67;0.90;;;9.10;99.90;;;;;;5055751;28;20215;-70
2024/03/29 08:02:32;;;;;;;2.93;1.27;;;9.10;99.90;;;;;;5057160;28;20278;-70
2024/03/29 08:04:58;;;;;;;1.10;1.00;;;9.10;99.90;;;;;;5058825;28;20481;-71
2024/03/29 08:07:24;;;;;;;1.37;0.97;;;9.10;99.90;;;;;;5060914;28;20238;-70
2024/03/29 08:09:50;;;;;;;1.07;1.00;;;9.10;99.90;;;;;;5037026;28;20469;-71
2024/03/29 08:12:16;;;;;;;1.27;1.17;;;9.20;99.90;;;;;;5061272;28;20703;-71
2024/03/29 08:14:42;;;;;;;1.63;1.20;;;9.20;99.90;;;;;;5059609;28;20473;-71
2024/03/29 08:17:09;;;;;;;1.20;1.10;;;9.20;99.90;;;;;;5056718;28;20230;-71
2024/03/29 08:19:44;;;;;;;4.83;1.30;;;9.30;99.90;;;;;;5059923;28;20302;-72
2024/03/29 08:22:13;;;;;;;1.30;1.20;;;9.30;99.90;;;;;;5056617;28;20461;-71
2024/03/29 08:24:39;;;;;;;2.30;1.20;;;9.40;99.90;;;;;;5062882;28;20507;-71
2024/03/29 08:27:05;;;;;;;0.80;0.80;;;9.40;99.90;;;;;;5054766;28;20461;-71
2024/03/29 08:29:30;;;;;;;1.50;1.30;;;9.40;99.90;;;;;;5060912;28;20246;-70
2024/03/29 08:31:56;;;;;;;2.53;1.40;;;9.40;99.90;;;;;;5056142;28;20650;-71
2024/03/29 08:34:22;;;;;;;1.33;1.20;;;9.40;99.90;;;;;;5063691;28;20223;-69
2024/03/29 08:36:48;;;;;;;1.40;1.40;;;9.40;99.90;;;;;;5055207;28;20223;-70
2024/03/29 08:39:14;;;;;;;4.73;1.27;;;9.40;99.90;;;;;;5044942;28;20820;-68
2024/03/29 08:41:40;;;;;;;2.33;1.90;;;9.40;99.90;;;;;;5061206;28;20762;-70
2024/03/29 08:44:07;;;;;;;2.50;2.13;;;9.40;99.90;;;;;;5040804;28;20465;-71
2024/03/29 08:46:33;;;;;;;2.63;1.70;;;9.40;99.90;;;;;;5046154;28;20215;-69
2024/03/29 08:48:58;;;;;;;2.03;1.83;;;9.40;99.90;;;;;;5056523;28;20808;-69
2024/03/29 08:51:24;;;;;;;2.00;1.80;;;9.40;99.90;;;;;;5043944;28;20233;-70
2024/03/29 08:53:50;;;;;;;6.40;2.13;;;9.40;99.90;;;;;;5040190;28;20226;-71
2024/03/29 08:56:16;;;;;;;2.30;1.33;;;9.40;99.90;;;;;;5063465;28;20227;-71
2024/03/29 08:58:41;;;;;;;1.30;1.20;;;9.40;99.90;;;;;;5060566;28;20218;-71
2024/03/29 09:01:07;;;;;;;1.53;1.07;;;9.40;99.90;;;;;;5054372;28;20223;-71
2024/03/29 09:03:33;;;;;;;1.57;1.00;;;9.50;99.90;;;;;;5059250;28;20273;-71
2024/03/29 09:05:58;;;;;;;1.17;1.07;;;9.50;99.90;;;;;;5035438;28;20222;-71
2024/03/29 09:08:24;;;;;;;2.40;1.37;;;9.50;99.90;;;;;;5059729;28;20290;-71
2024/03/29 09:10:50;;;;;;;1.73;1.40;;;9.50;99.90;;;;;;5054875;28;20221;-71
2024/03/29 09:13:15;;;;;;;1.23;1.17;;;9.50;99.90;;;;;;5057021;28;20233;-71
2024/03/29 09:15:42;;;;;;;5.23;1.70;;;9.50;99.90;;;;;;5058963;28;20227;-72
2024/03/29 09:18:17;;;;;;;3.23;2.07;;;9.50;99.90;;;;;;5051389;28;20218;-71
2024/03/29 09:20:44;;;;;;;2.63;1.60;;;9.60;99.90;;;;;;5057803;28;20998;-71
2024/03/29 09:23:10;;;;;;;3.43;2.80;;;9.60;99.90;;;;;;5051936;28;20515;-71
2024/03/29 09:25:40;;;;;;;2.50;1.90;;;9.60;99.90;;;;;;5057722;28;20462;-71
2024/03/29 09:28:06;;;;;;;1.73;1.63;;;9.60;99.90;;;;;;5056417;28;20470;-71
2024/03/29 09:30:32;;;;;;;2.07;1.87;;;9.70;99.90;;;;;;5057916;28;21047;-71
2024/03/29 09:32:58;;;;;;;4.00;2.50;;;9.70;99.90;;;;;;5033584;28;20578;-71
2024/03/29 09:35:24;;;;;;;1.40;1.30;;;9.70;99.90;;;;;;5057036;28;20458;-71
2024/03/29 09:37:50;;;;;;;2.33;1.90;;;9.80;99.90;;;;;;5057070;28;20253;-72
2024/03/29 09:40:16;;;;;;;1.37;1.20;;;9.80;99.90;;;;;;5059430;28;20995;-71
2024/03/29 09:42:45;;;;;;;2.20;1.60;;;9.80;99.90;;;;;;5062467;28;20223;-71
2024/03/29 09:45:11;;;;;;;1.43;1.30;;;9.80;99.90;;;;;;5039770;28;20227;-70
2024/03/29 09:47:37;;;;;;;6.60;1.27;;;9.90;99.90;;;;;;5060588;28;20453;-71
2024/03/29 09:50:05;;;;;;;1.13;0.90;;;9.90;99.90;;;;;;5040500;28;20557;-70
2024/03/29 09:52:34;;;;;;;1.53;1.27;;;10.00;99.90;;;;;;5058008;28;20464;-71
2024/03/29 09:55:03;;;;;;;1.27;1.17;;;10.00;99.90;;;;;;5036618;28;20460;-72
2024/03/29 09:57:31;;;;;;;1.33;1.00;;;10.10;99.90;;;;;;5061770;28;20481;-71
2024/03/29 09:59:57;;;;;;;1.40;1.30;;;10.10;99.90;;;;;;5056543;28;20460;-71
2024/03/29 10:02:28;;;;;;;2.10;0.90;;;10.20;99.90;;;;;;5056456;28;20891;-68
2024/03/29 10:04:56;;;;;;;1.57;0.90;;;10.20;99.90;;;;;;5058554;28;20226;-72
2024/03/29 10:07:23;;;;;;;1.43;1.00;;;10.30;99.90;;;;;;5057957;28;20467;-70
2024/03/29 10:09:50;;;;;;;1.20;1.10;;;10.30;99.90;;;;;;5034775;28;20493;-71
2024/03/29 10:12:17;;;;;;;1.53;0.83;;;10.40;99.90;;;;;;5056184;28;20581;-72
2024/03/29 10:14:49;;;;;;;1.33;1.27;;;10.40;99.90;;;;;;5060844;28;20476;-72
2024/03/29 10:17:17;;;;;;;1.27;1.17;;;10.40;99.90;;;;;;5057606;28;20465;-70
2024/03/29 10:19:43;;;;;;;2.83;1.30;;;10.50;99.90;;;;;;5059446;28;20457;-71
2024/03/29 10:22:09;;;;;;;1.20;0.90;;;10.50;99.90;;;;;;5053798;28;20472;-70
2024/03/29 10:24:36;;;;;;;2.90;1.23;;;10.60;99.90;;;;;;5058537;28;20222;-71
2024/03/29 10:27:02;;;;;;;1.90;1.10;;;10.60;99.90;;;;;;5055490;28;20221;-71
2024/03/29 10:29:29;;;;;;;1.43;1.00;;;10.70;99.90;;;;;;5041560;28;20461;-71
2024/03/29 10:31:56;;;;;;;3.50;1.27;;;10.70;99.90;;;;;;5054073;28;20311;-72
2024/03/29 10:34:24;;;;;;;4.40;1.60;;;10.70;99.90;;;;;;5059450;28;20484;-71
2024/03/29 10:36:50;;;;;;;1.53;1.37;;;10.80;99.90;;;;;;5053682;28;20743;-71
2024/03/29 10:39:16;;;;;;;1.73;1.63;;;10.80;99.90;;;;;;5057335;28;20449;-71
2024/03/29 10:41:43;;;;;;;2.87;1.90;;;10.80;99.90;;;;;;5059700;28;20549;-71
2024/03/29 10:44:14;;;;;;;2.30;1.70;;;10.90;99.90;;;;;;5055474;28;20478;-71
2024/03/29 10:46:41;;;;;;;3.30;1.60;;;10.90;99.90;;;;;;5059757;28;20607;-71
2024/03/29 10:49:11;;;;;;;2.73;2.10;;;10.90;99.90;;;;;;5057550;28;20468;-71
2024/03/29 10:51:39;;;;;;;4.70;1.87;;;10.90;99.90;;;;;;5061762;28;20549;-70
2024/03/29 10:54:06;;;;;;;2.33;1.57;;;11.00;99.90;;;;;;5053536;28;20468;-72
2024/03/29 10:56:34;;;;;;;3.40;1.53;;;11.00;99.90;;;;;;5058941;28;20473;-71
2024/03/29 10:59:17;;;;;;;2.50;1.63;;;11.10;99.90;;;;;;5055569;28;20491;-71
2024/03/29 11:01:48;;;;;;;2.43;1.80;;;11.10;99.90;;;;;;5056820;28;20517;-72
2024/03/29 11:04:22;;;;;;;2.93;1.80;;;11.10;99.90;;;;;;5056577;28;20454;-72
2024/03/29 11:06:51;;;;;;;7.20;2.00;;;11.10;99.90;;;;;;5051515;28;20991;-71
2024/03/29 11:09:20;;;;;;;5.70;1.80;;;11.20;99.90;;;;;;5060917;28;20465;-69
2024/03/29 11:11:50;;;;;;;1.33;1.23;;;11.20;99.90;;;;;;5045666;28;20982;-71
2024/03/29 11:14:23;;;;;;;3.83;1.60;;;11.30;99.90;;;;;;5044572;28;20485;-71
2024/03/29 11:16:54;;;;;;;2.80;2.10;;;11.40;99.90;;;;;;5058003;28;21051;-70
2024/03/29 11:19:20;;;;;;;3.40;1.70;;;11.40;99.90;;;;;;5046087;28;20503;-71
2024/03/29 11:21:49;;;;;;;2.07;1.87;;;11.40;99.90;;;;;;5061086;28;20489;-71
2024/03/29 11:24:19;;;;;;;2.40;1.40;;;11.40;99.90;;;;;;5059516;28;20469;-71
2024/03/29 11:26:45;;;;;;;2.10;1.87;;;11.40;99.90;;;;;;5063067;28;20506;-72
2024/03/29 11:29:22;;;;;;;3.03;2.47;;;11.50;99.90;;;;;;5058252;28;20473;-71
2024/03/29 11:31:51;;;;;;;4.27;2.10;;;11.50;99.90;;;;;;5041904;28;20464;-72
2024/03/29 11:34:19;;;;;;;3.93;2.60;;;11.50;99.90;;;;;;5062131;28;20450;-72
2024/03/29 11:36:46;;;;;;;3.53;2.13;;;11.50;99.90;;;;;;5062018;28;20542;-71
2024/03/29 11:39:20;;;;;;;3.30;2.60;;;11.50;99.90;;;;;;5057182;28;20496;-71
2024/03/29 11:41:50;;;;;;;4.23;2.70;;;11.50;99.90;;;;;;5062076;28;20484;-72
2024/03/29 11:44:16;;;;;;;4.10;1.93;;;11.50;99.90;;;;;;5062448;28;20540;-72
2024/03/29 11:46:46;;;;;;;2.50;2.00;;;11.50;99.90;;;;;;5060623;28;20493;-72
2024/03/29 11:49:12;;;;;;;2.63;1.90;;;11.40;99.90;;;;;;5053008;28;20461;-71
2024/03/29 11:51:38;;;;;;;2.23;1.80;;;11.40;99.90;;;;;;5042116;28;20473;-71
2024/03/29 11:54:03;;;;;;;2.00;1.83;;;11.40;99.90;;;;;;5056623;28;20469;-71
2024/03/29 11:56:29;;;;;;;2.67;1.70;;;11.40;99.90;;;;;;5062861;28;20227;-71
2024/03/29 11:58:59;;;;;;;2.30;2.10;;;11.50;99.90;;;;;;5057113;28;20367;-72
2024/03/29 12:01:29;;;;;;;2.63;2.20;;;11.50;99.90;;;;;;5042321;28;20638;-71
2024/03/29 12:03:55;;;;;;;3.53;1.73;;;11.60;99.90;;;;;;5056821;28;20469;-72
2024/03/29 12:06:21;;;;;;;2.50;2.00;;;11.60;99.90;;;;;;5060710;28;20550;-72
2024/03/29 12:08:48;;;;;;;3.13;2.80;;;11.70;99.90;;;;;;5057626;28;20230;-72
2024/03/29 12:11:14;;;;;;;3.40;2.07;;;11.70;99.90;;;;;;5060305;28;20219;-70
2024/03/29 12:13:40;;;;;;;4.17;2.40;;;11.80;99.90;;;;;;5059125;28;20460;-72
2024/03/29 12:16:07;;;;;;;10.63;2.90;;;11.90;99.90;;;;;;5054899;28;20273;-70
2024/03/29 12:18:33;;;;;;;3.20;2.70;;;11.90;99.90;;;;;;5061969;28;20457;-72
2024/03/29 12:20:59;;;;;;;2.80;2.30;;;11.90;99.90;;;;;;5054263;28;20826;-70
2024/03/29 12:23:25;;;;;;;3.07;2.53;;;11.90;99.90;;;;;;5056866;28;20267;-70
2024/03/29 12:25:57;;;;;;;2.37;1.83;;;12.00;99.90;;;;;;5055552;28;20470;-71
2024/03/29 12:28:23;;;;;;;3.63;1.67;;;12.10;99.90;;;;;;5058185;28;20450;-72
2024/03/29 12:30:49;;;;;;;1.87;1.70;;;12.10;99.90;;;;;;5056395;28;20502;-71
2024/03/29 12:33:16;;;;;;;2.37;1.90;;;12.10;99.90;;;;;;5059873;28;20484;-71
2024/03/29 12:35:47;;;;;;;1.47;1.37;;;12.10;99.90;;;;;;5056972;28;20462;-71
2024/03/29 12:38:14;;;;;;;1.70;1.60;;;12.10;99.90;;;;;;5058713;28;21156;-71
2024/03/29 12:40:43;;;;;;;1.80;1.70;;;12.10;99.90;;;;;;5041609;28;20522;-70
2024/03/29 12:43:09;;;;;;;2.70;2.00;;;12.10;99.90;;;;;;5056508;28;20539;-71
2024/03/29 12:45:36;;;;;;;1.60;1.40;;;12.10;99.90;;;;;;5058062;28;20458;-71
2024/03/29 12:48:02;;;;;;;2.10;1.47;;;12.10;99.90;;;;;;5054077;28;20806;-70
2024/03/29 12:50:31;;;;;;;1.80;1.43;;;12.10;99.90;;;;;;5041048;28;20527;-69
2024/03/29 12:52:59;;;;;;;3.20;2.10;;;12.10;99.90;;;;;;5056212;28;20462;-70
2024/03/29 12:55:30;;;;;;;1.97;1.53;;;12.10;99.90;;;;;;5065776;28;20446;-70
2024/03/29 12:57:56;;;;;;;1.40;1.30;;;12.10;99.90;;;;;;5065416;28;20462;-71